Plesetsk, Russia
Current Conditions -  °F | °C
As of 5:30 AM on Friday 21 Nov 2014 (Local Time) from ULAA Reporting Station
Overcast Overcast  
Wind Chill: 25°   Ceiling: 2100
Heat Index: 30°   Visibility: 6mi
Dew Point: 28°   Wind: 4mph
Humidity: 93%   Direction: 270°W
Pressure: 30.33"   Gusts: NA
Location:  62.72°N, 40.28°E
Report Text: ULAA 210230Z 27002MPS 9999 OVC021 M01/M02 Q1027 BECMG 2000 FZDZOVC005 RMK QFE769/1026 SC040
Loading
Personal Weather Stations






























Interactive Weather Map New forecast layout! Learn more

10-Day Weather Forecast

Advertisements
Track Severe Weather on mobile